Rechercher aéroport 
image banner adimage banner adimage banner ad
image banner ad

4CA6 - Chevron Refinery

Situé à El Segundo, United States

ICAO - 4CA6, IATA -

Données fournies par Airmate  

Information générale

Coordonnées: N33°54'52" W118°25'38"
Élévation : 29 feet MSL.
Variation magnétique : 14° East
Voir autres Aéroports à California

Données opérationnelles

Special qualification required
Heure actuelle UTC:
Heure actuelle locale:
Météo à : KLAX - Los Angeles Intl ( 4 km )
METAR: KLAX 262353Z 25010KT 10SM FEW012 SCT150 21/17 A2994 RMK AO2 SLP137 T02060167 10211 20194 55004 $
TAF: KLAX 262342Z 2700/2806 26010KT P6SM FEW012 BKN120 FM270500 26007KT P6SM OVC012 FM271000 VRB03KT P6SM OVC008 FM271600 26006KT P6SM BKN012 FM271800 26012KT P6SM SCT015
Voir NOTAMs / SUP AIP / TFR affectant cet aéroport [VIEW]
Fréquences de communication: [VIEW]

Pistes:

Coordonnées de l'aéroport

Adresse: El Segundo United States

Vue satellite de 4CA6